Time;durP1;ratioP1;P1;durP2;ratioP2;P2;SDS_P1;SDS_P2;PMS_P1;PMS_P2;Temp;Humidity;BMP_temperature;BMP_pressure;BME280_temperature;BME280_humidity;BME280_pressure;Samples;Min_cycle;Max_cycle;Signal;HPM_P1;HPM_P2
2023/08/26 00:00:41;;;;;;;21.20;15.85;;;26.10;76.10;;;;;;5094591;28;20217;-71
2023/08/26 00:03:45;;;;;;;19.17;13.48;;;26.00;76.20;;;;;;5094307;28;20051;-71
2023/08/26 00:06:49;;;;;;;17.50;13.88;;;25.90;76.20;;;;;;5094086;28;20043;-71
2023/08/26 00:09:53;;;;;;;17.85;13.30;;;25.90;76.30;;;;;;5094088;28;20051;-71
2023/08/26 00:12:58;;;;;;;15.95;12.70;;;25.80;76.20;;;;;;5093901;28;20051;-70
2023/08/26 00:16:02;;;;;;;19.70;13.90;;;25.80;76.30;;;;;;5093887;28;20059;-72
2023/08/26 00:19:05;;;;;;;21.58;13.60;;;25.70;76.50;;;;;;5093660;28;20031;-71
2023/08/26 00:22:09;;;;;;;17.35;12.90;;;25.70;76.60;;;;;;5093844;28;20043;-70
2023/08/26 00:25:13;;;;;;;16.83;12.90;;;25.70;76.60;;;;;;5093970;28;20489;-71
2023/08/26 00:28:17;;;;;;;21.45;13.70;;;25.70;76.70;;;;;;5093683;28;20498;-70
2023/08/26 00:31:22;;;;;;;14.50;12.23;;;25.60;76.70;;;;;;5080990;28;20051;-70
2023/08/26 00:34:26;;;;;;;19.17;13.63;;;25.60;76.90;;;;;;5094088;28;20486;-71
2023/08/26 00:37:31;;;;;;;17.30;12.45;;;25.60;76.80;;;;;;5093884;28;20043;-71
2023/08/26 00:40:36;;;;;;;15.27;12.82;;;25.60;76.50;;;;;;5081076;28;20047;-70
2023/08/26 00:43:40;;;;;;;18.33;13.07;;;25.60;76.40;;;;;;5081141;28;20043;-70
2023/08/26 00:46:45;;;;;;;18.48;13.43;;;25.70;76.70;;;;;;5082771;28;20059;-71
2023/08/26 00:49:50;;;;;;;16.27;13.10;;;25.60;76.60;;;;;;5080806;28;20043;-70
2023/08/26 00:52:55;;;;;;;15.90;12.90;;;25.60;76.90;;;;;;5093015;28;20039;-71
2023/08/26 00:56:00;;;;;;;18.90;13.18;;;25.50;76.90;;;;;;5080396;28;20410;-71
2023/08/26 00:59:04;;;;;;;17.27;12.95;;;25.50;77.10;;;;;;5080555;28;20043;-71
2023/08/26 01:02:09;;;;;;;16.90;12.98;;;25.40;77.70;;;;;;5080652;28;20051;-70
2023/08/26 01:05:13;;;;;;;16.83;13.30;;;25.40;77.30;;;;;;5080522;28;20043;-70
2023/08/26 01:08:17;;;;;;;17.17;13.18;;;25.40;77.50;;;;;;5093241;28;20051;-70
2023/08/26 01:11:37;;;;;;;19.85;13.82;;;25.40;77.80;;;;;;5079133;28;20401;-70
2023/08/26 01:14:50;;;;;;;17.10;12.35;;;25.30;78.10;;;;;;5080554;28;20043;-70
2023/08/26 01:17:55;;;;;;;22.15;13.27;;;25.20;78.20;;;;;;5092910;28;20054;-70
2023/08/26 01:21:00;;;;;;;17.83;11.55;;;25.20;78.50;;;;;;5080135;28;20047;-70
2023/08/26 01:24:06;;;;;;;17.73;11.88;;;25.20;78.60;;;;;;5080439;28;20070;-70
2023/08/26 01:27:11;;;;;;;17.08;11.75;;;25.20;78.80;;;;;;5092813;28;20051;-70
2023/08/26 01:30:15;;;;;;;17.80;12.60;;;25.10;78.90;;;;;;5079853;28;20070;-70
2023/08/26 01:33:25;;;;;;;15.27;11.32;;;25.20;79.10;;;;;;5079910;28;20047;-70
2023/08/26 01:36:33;;;;;;;19.80;12.80;;;25.00;80.10;;;;;;5080164;28;20059;-70
2023/08/26 01:39:39;;;;;;;19.40;12.43;;;24.50;81.60;;;;;;5079865;28;20510;-70
2023/08/26 01:42:45;;;;;;;14.63;12.45;;;24.20;83.60;;;;;;5092146;28;20415;-70
2023/08/26 01:45:53;;;;;;;19.15;12.27;;;24.00;85.30;;;;;;5080083;28;20051;-70
2023/08/26 01:48:57;;;;;;;17.45;11.52;;;23.60;88.20;;;;;;5092385;28;20043;-70
2023/08/26 01:52:01;;;;;;;19.05;11.95;;;23.30;91.20;;;;;;5091710;28;20039;-70
2023/08/26 01:55:05;;;;;;;16.40;10.93;;;23.20;92.50;;;;;;5079688;28;20047;-70
2023/08/26 01:58:09;;;;;;;17.30;10.65;;;23.10;94.20;;;;;;5091732;28;20039;-70
2023/08/26 02:01:14;;;;;;;16.20;10.25;;;23.10;95.00;;;;;;5079138;28;20391;-71
2023/08/26 02:04:17;;;;;;;13.98;10.13;;;23.20;95.50;;;;;;5079601;28;20521;-71
2023/08/26 02:07:21;;;;;;;13.48;10.38;;;23.30;96.00;;;;;;5079432;28;20118;-71
2023/08/26 02:10:25;;;;;;;15.55;10.70;;;23.20;96.90;;;;;;5079388;28;20047;-71
2023/08/26 02:13:30;;;;;;;14.75;10.73;;;23.20;97.60;;;;;;5091244;28;20506;-71
2023/08/26 02:16:34;;;;;;;17.70;11.25;;;23.10;98.00;;;;;;5079440;28;20043;-71
2023/08/26 02:19:40;;;;;;;14.77;9.75;;;23.10;98.50;;;;;;5067431;28;20043;-70
2023/08/26 02:22:45;;;;;;;16.33;11.15;;;23.10;98.90;;;;;;5078205;28;20035;-70
2023/08/26 02:25:48;;;;;;;15.77;11.10;;;23.00;99.60;;;;;;5079094;28;20071;-70
2023/08/26 02:28:52;;;;;;;17.13;10.60;;;22.90;99.90;;;;;;5067183;28;20039;-71
2023/08/26 02:31:56;;;;;;;14.25;10.27;;;22.90;99.90;;;;;;5090345;28;20040;-70
2023/08/26 02:35:01;;;;;;;17.92;11.07;;;23.00;99.90;;;;;;5078948;28;20046;-71
2023/08/26 02:38:05;;;;;;;16.42;11.10;;;23.00;99.90;;;;;;5078597;28;20031;-70
2023/08/26 02:41:09;;;;;;;18.58;11.90;;;22.90;99.90;;;;;;5090737;28;20054;-71
2023/08/26 02:44:13;;;;;;;14.13;11.52;;;22.90;99.90;;;;;;5091483;28;20506;-71
2023/08/26 02:47:17;;;;;;;14.93;10.95;;;22.90;99.90;;;;;;5078664;28;20043;-71
2023/08/26 02:50:22;;;;;;;14.15;10.68;;;22.90;99.90;;;;;;5078490;28;20051;-71
2023/08/26 02:53:27;;;;;;;13.88;11.23;;;22.90;99.90;;;;;;5090708;28;20039;-71
2023/08/26 02:56:31;;;;;;;14.95;11.73;;;22.80;99.90;;;;;;5091203;28;20063;-70
2023/08/26 02:59:36;;;;;;;17.35;11.27;;;22.90;99.90;;;;;;5067301;28;20051;-71
2023/08/26 03:02:40;;;;;;;14.63;11.32;;;23.00;99.90;;;;;;5090941;28;20043;-70
2023/08/26 03:05:45;;;;;;;18.73;11.95;;;23.10;99.90;;;;;;5078334;28;20043;-70
2023/08/26 03:08:48;;;;;;;21.70;11.45;;;23.10;99.90;;;;;;5090947;28;20540;-70
2023/08/26 03:11:52;;;;;;;15.05;11.70;;;23.00;99.90;;;;;;5090205;28;20051;-70
2023/08/26 03:14:56;;;;;;;18.20;12.50;;;23.00;99.90;;;;;;5078236;28;20063;-70
2023/08/26 03:18:00;;;;;;;15.68;11.18;;;22.90;99.90;;;;;;5090838;28;20051;-70
2023/08/26 03:21:06;;;;;;;15.48;12.20;;;22.90;99.90;;;;;;5090781;28;20039;-70
2023/08/26 03:24:17;;;;;;;18.75;12.23;;;22.80;99.90;;;;;;5091019;28;20410;-70
2023/08/26 03:27:21;;;;;;;16.13;11.73;;;22.80;99.90;;;;;;5090965;28;20047;-70
2023/08/26 03:30:25;;;;;;;18.50;12.38;;;22.70;99.90;;;;;;5090569;28;20494;-70
2023/08/26 03:33:29;;;;;;;19.50;12.40;;;22.50;99.90;;;;;;5078056;28;20394;-70
2023/08/26 03:36:33;;;;;;;17.25;11.63;;;22.40;99.90;;;;;;5094784;28;20043;-70
2023/08/26 03:39:37;;;;;;;17.83;11.60;;;22.40;99.90;;;;;;5082321;28;20043;-70
2023/08/26 03:42:41;;;;;;;19.58;11.50;;;22.40;99.90;;;;;;5081936;28;20054;-70
2023/08/26 03:45:46;;;;;;;18.92;12.18;;;22.30;99.90;;;;;;5082184;28;20055;-70
2023/08/26 03:48:50;;;;;;;19.73;13.27;;;22.30;99.90;;;;;;5094475;28;20382;-70
2023/08/26 03:51:54;;;;;;;18.98;12.40;;;22.10;99.90;;;;;;5092993;28;20043;-70
2023/08/26 03:54:58;;;;;;;16.50;12.05;;;22.00;99.90;;;;;;5094605;28;20387;-70
2023/08/26 03:58:02;;;;;;;17.98;11.95;;;21.90;99.90;;;;;;5094584;28;20497;-70
2023/08/26 04:01:06;;;;;;;16.38;11.65;;;21.90;99.90;;;;;;5094247;28;20055;-70
2023/08/26 04:04:10;;;;;;;19.60;13.05;;;21.90;99.90;;;;;;5094519;28;20058;-70
2023/08/26 04:07:14;;;;;;;16.55;12.52;;;21.90;99.90;;;;;;5081529;28;20035;-70
2023/08/26 04:10:18;;;;;;;18.65;12.43;;;21.80;99.90;;;;;;5081206;28;20047;-70
2023/08/26 04:13:24;;;;;;;19.25;12.77;;;21.90;99.90;;;;;;5080727;28;20046;-70
2023/08/26 04:16:29;;;;;;;17.88;12.23;;;21.90;99.90;;;;;;5081673;28;20051;-70
2023/08/26 04:19:35;;;;;;;17.38;13.23;;;21.90;99.90;;;;;;5093645;28;20502;-70
2023/08/26 04:22:39;;;;;;;17.58;13.23;;;21.80;99.90;;;;;;5080885;28;20047;-70
2023/08/26 04:25:43;;;;;;;18.20;13.00;;;21.80;99.90;;;;;;5081115;28;20039;-71
2023/08/26 04:28:47;;;;;;;19.00;13.57;;;21.60;99.90;;;;;;5081373;28;20059;-71
2023/08/26 04:31:51;;;;;;;18.38;12.85;;;21.60;99.90;;;;;;5093177;28;20047;-71
2023/08/26 04:34:55;;;;;;;19.25;12.68;;;21.50;99.90;;;;;;5094145;28;20039;-71
2023/08/26 04:38:00;;;;;;;18.90;12.65;;;21.60;99.90;;;;;;5081441;28;20048;-71
2023/08/26 04:41:05;;;;;;;21.42;13.13;;;21.60;99.90;;;;;;5081251;28;20349;-71
2023/08/26 04:44:09;;;;;;;22.70;13.73;;;21.70;99.90;;;;;;5096098;28;20408;-70
2023/08/26 04:47:13;;;;;;;21.73;12.77;;;21.70;99.90;;;;;;5080856;28;20035;-71
2023/08/26 04:50:18;;;;;;;19.40;11.68;;;21.70;99.90;;;;;;5092903;28;20047;-71
2023/08/26 04:53:22;;;;;;;14.88;11.88;;;21.60;99.90;;;;;;5068672;28;20035;-71
2023/08/26 04:56:27;;;;;;;18.65;12.90;;;21.60;99.90;;;;;;5093303;28;20035;-71
2023/08/26 04:59:30;;;;;;;22.15;13.45;;;21.80;99.90;;;;;;5080802;28;20043;-71
2023/08/26 05:02:34;;;;;;;14.52;12.35;;;21.90;99.90;;;;;;5092810;28;20498;-71
2023/08/26 05:05:42;;;;;;;18.83;11.77;;;22.00;99.90;;;;;;5093517;28;20044;-71
2023/08/26 05:08:46;;;;;;;18.35;12.05;;;22.10;99.90;;;;;;5093060;28;20051;-71
2023/08/26 05:11:50;;;;;;;19.90;12.85;;;22.00;99.90;;;;;;5079721;28;20533;-71
2023/08/26 05:14:54;;;;;;;24.65;13.32;;;22.00;99.90;;;;;;5069061;28;20043;-71
2023/08/26 05:17:58;;;;;;;17.90;12.30;;;21.90;99.90;;;;;;5080188;28;20043;-71
2023/08/26 05:21:02;;;;;;;20.48;11.88;;;22.00;99.90;;;;;;5080168;28;20043;-71
2023/08/26 05:24:06;;;;;;;25.73;14.18;;;22.20;99.90;;;;;;5080284;28;20058;-71
2023/08/26 05:27:10;;;;;;;18.05;12.27;;;23.90;99.90;;;;;;5080369;28;20043;-71
2023/08/26 05:30:15;;;;;;;17.58;11.93;;;26.20;99.90;;;;;;5079816;28;20035;-71
2023/08/26 05:33:29;;;;;;;16.42;12.38;;;28.00;97.30;;;;;;5079693;28;20047;-72
2023/08/26 05:36:34;;;;;;;13.68;10.93;;;29.20;93.40;;;;;;5080106;28;20379;-71
2023/08/26 05:39:38;;;;;;;14.60;10.23;;;30.40;91.10;;;;;;5092735;28;20058;-72
2023/08/26 05:42:42;;;;;;;12.45;9.95;;;31.40;88.20;;;;;;5079177;28;20050;-71
2023/08/26 05:45:46;;;;;;;16.75;10.05;;;32.30;85.70;;;;;;5079619;28;20048;-71
2023/08/26 05:48:50;;;;;;;12.18;10.50;;;32.10;83.80;;;;;;5079775;28;20489;-72
2023/08/26 05:51:54;;;;;;;19.27;10.98;;;31.40;84.30;;;;;;5091896;28;20042;-71
2023/08/26 05:54:58;;;;;;;16.63;9.65;;;31.60;84.10;;;;;;5079625;28;20071;-71
2023/08/26 05:58:02;;;;;;;13.73;9.35;;;31.80;82.80;;;;;;5079076;28;20047;-71
2023/08/26 06:01:06;;;;;;;16.77;10.25;;;32.30;82.00;;;;;;5092049;28;20415;-71
2023/08/26 06:04:11;;;;;;;15.25;10.13;;;33.30;80.10;;;;;;5079131;28;20039;-71
2023/08/26 06:07:15;;;;;;;19.52;10.90;;;33.70;79.30;;;;;;5079475;28;20039;-72
2023/08/26 06:10:19;;;;;;;13.45;10.18;;;33.30;79.10;;;;;;5079634;28;20501;-72
2023/08/26 06:13:23;;;;;;;14.68;9.80;;;32.60;80.00;;;;;;5078565;28;20047;-71
2023/08/26 06:16:28;;;;;;;12.77;9.98;;;33.00;80.40;;;;;;5079431;28;20046;-71
2023/08/26 06:19:33;;;;;;;18.17;10.25;;;32.30;81.00;;;;;;5079141;28;20038;-72
2023/08/26 06:22:38;;;;;;;15.25;9.93;;;32.40;80.40;;;;;;5078629;28;20075;-72
2023/08/26 06:25:56;;;;;;;11.98;10.20;;;32.70;80.70;;;;;;5091513;28;20039;-72
2023/08/26 06:29:03;;;;;;;11.45;9.13;;;33.30;80.00;;;;;;5079263;28;20047;-72
2023/08/26 06:32:09;;;;;;;12.90;9.60;;;33.10;79.50;;;;;;5078466;28;20051;-71
2023/08/26 06:35:15;;;;;;;12.25;9.40;;;33.50;78.60;;;;;;5078685;28;20039;-72
2023/08/26 06:38:19;;;;;;;9.68;8.75;;;34.20;77.90;;;;;;5079012;28;20043;-71
2023/08/26 06:41:23;;;;;;;12.32;8.98;;;34.50;76.90;;;;;;5078552;28;20043;-72
2023/08/26 06:44:27;;;;;;;9.52;8.10;;;34.80;76.10;;;;;;5078633;28;20047;-72
2023/08/26 06:47:31;;;;;;;12.05;8.68;;;35.10;76.30;;;;;;5078976;28;20043;-72
2023/08/26 06:50:35;;;;;;;10.45;8.70;;;35.40;75.10;;;;;;5091476;28;20039;-72
2023/08/26 06:53:39;;;;;;;10.93;8.40;;;35.60;74.00;;;;;;5090414;28;20055;-72
2023/08/26 06:56:44;;;;;;;9.40;8.00;;;35.70;73.80;;;;;;5078785;28;20039;-72
2023/08/26 06:59:48;;;;;;;12.73;8.57;;;35.70;73.30;;;;;;5091184;28;20058;-72
2023/08/26 07:02:52;;;;;;;14.18;8.80;;;34.20;74.30;;;;;;5090484;28;20047;-72
2023/08/26 07:05:56;;;;;;;12.48;8.88;;;34.80;74.30;;;;;;5091041;28;20043;-72
2023/08/26 07:09:00;;;;;;;10.30;8.43;;;35.10;73.90;;;;;;5090799;28;20067;-72
2023/08/26 07:12:04;;;;;;;15.07;8.85;;;35.30;73.50;;;;;;5090502;28;20398;-72
2023/08/26 07:15:09;;;;;;;11.93;8.60;;;35.00;72.60;;;;;;5090924;28;20422;-71
2023/08/26 07:18:13;;;;;;;11.20;7.88;;;35.70;72.00;;;;;;5091093;28;20050;-72
2023/08/26 07:21:16;;;;;;;9.52;7.35;;;36.60;71.60;;;;;;5090446;28;20043;-72
2023/08/26 07:24:20;;;;;;;8.98;7.93;;;37.20;71.00;;;;;;5078206;28;20070;-72
2023/08/26 07:27:24;;;;;;;9.25;8.25;;;38.00;69.80;;;;;;5091156;28;20047;-71
2023/08/26 07:30:29;;;;;;;13.07;8.15;;;38.40;68.80;;;;;;5091593;28;20039;-72
2023/08/26 07:33:34;;;;;;;8.85;7.70;;;38.70;68.40;;;;;;5090382;28;20410;-72
2023/08/26 07:36:38;;;;;;;9.98;7.65;;;38.80;67.50;;;;;;5091234;28;20102;-71
2023/08/26 07:39:42;;;;;;;7.70;6.90;;;38.10;68.70;;;;;;5090779;28;20044;-72
2023/08/26 07:42:45;;;;;;;13.13;8.30;;;38.80;66.70;;;;;;5081986;28;20043;-71
2023/08/26 07:45:50;;;;;;;7.95;7.15;;;37.70;67.60;;;;;;5086328;28;20398;-71
2023/08/26 07:48:53;;;;;;;11.57;7.95;;;36.30;69.80;;;;;;5078558;28;20047;-72
2023/08/26 07:51:57;;;;;;;9.70;7.85;;;36.30;70.40;;;;;;5090267;28;20051;-72
2023/08/26 07:55:01;;;;;;;11.35;7.80;;;36.70;69.40;;;;;;5090621;28;20043;-70
2023/08/26 07:58:06;;;;;;;9.40;8.15;;;36.30;70.50;;;;;;5077989;28;20044;-71
2023/08/26 08:01:10;;;;;;;9.40;7.10;;;38.00;69.20;;;;;;5090404;28;20390;-72
2023/08/26 08:04:14;;;;;;;8.55;7.60;;;38.30;68.40;;;;;;5090195;28;20039;-70
2023/08/26 08:07:18;;;;;;;8.75;7.22;;;36.60;69.00;;;;;;5078295;28;20062;-71
2023/08/26 08:10:22;;;;;;;10.07;7.63;;;36.60;68.60;;;;;;5090010;28;20051;-71
2023/08/26 08:13:26;;;;;;;13.77;7.63;;;35.40;71.50;;;;;;5089882;28;20071;-71
2023/08/26 08:16:30;;;;;;;11.25;8.02;;;37.30;69.80;;;;;;5090236;28;20039;-71
2023/08/26 08:19:38;;;;;;;15.93;8.43;;;37.00;69.50;;;;;;5090496;28;20154;-71
2023/08/26 08:22:43;;;;;;;10.40;7.60;;;36.80;68.10;;;;;;5093743;28;20043;-71
2023/08/26 08:25:47;;;;;;;9.57;6.72;;;37.80;68.40;;;;;;5093761;28;20043;-71
2023/08/26 08:28:51;;;;;;;11.90;7.03;;;39.60;66.20;;;;;;5077496;28;20051;-71
2023/08/26 08:31:55;;;;;;;8.57;7.10;;;38.70;65.00;;;;;;5093666;28;20043;-71
2023/08/26 08:35:00;;;;;;;10.50;6.97;;;38.80;65.70;;;;;;5093617;28;20055;-71
2023/08/26 08:38:04;;;;;;;12.27;6.78;;;39.60;64.30;;;;;;5093720;28;20031;-71
2023/08/26 08:41:08;;;;;;;13.32;6.55;;;39.20;65.00;;;;;;5093686;28;20047;-71
2023/08/26 08:44:14;;;;;;;9.85;6.50;;;41.10;64.40;;;;;;5093876;28;20047;-70
2023/08/26 08:47:18;;;;;;;11.95;6.28;;;41.60;61.70;;;;;;5093518;28;20426;-70
2023/08/26 08:50:23;;;;;;;8.57;6.30;;;42.30;61.20;;;;;;5093811;28;20047;-71
2023/08/26 08:53:30;;;;;;;8.07;5.85;;;43.60;60.30;;;;;;5092834;28;20059;-71
2023/08/26 08:56:36;;;;;;;11.75;5.78;;;42.90;59.60;;;;;;5093327;28;20046;-72
2023/08/26 08:59:41;;;;;;;10.18;5.60;;;43.00;57.00;;;;;;5093460;28;20039;-70
2023/08/26 09:02:47;;;;;;;7.95;5.00;;;43.80;58.00;;;;;;5092726;28;20055;-71
2023/08/26 09:05:52;;;;;;;6.00;5.40;;;44.30;57.00;;;;;;5073325;28;20048;-70
2023/08/26 09:08:59;;;;;;;7.25;4.85;;;42.40;56.70;;;;;;5073090;28;20490;-71
2023/08/26 09:12:06;;;;;;;10.20;5.30;;;44.50;56.10;;;;;;5072300;28;20109;-71
2023/08/26 09:15:11;;;;;;;6.85;4.68;;;45.70;55.30;;;;;;5072485;28;20048;-71
2023/08/26 09:18:18;;;;;;;6.10;4.40;;;43.80;55.40;;;;;;5072889;28;20387;-71
2023/08/26 09:21:22;;;;;;;6.70;5.68;;;45.40;54.00;;;;;;5072427;28;20055;-71
2023/08/26 09:24:29;;;;;;;7.97;5.03;;;43.40;55.40;;;;;;5072733;28;20052;-72
2023/08/26 09:27:34;;;;;;;7.75;4.97;;;44.50;55.00;;;;;;5086625;28;20043;-71
2023/08/26 09:30:38;;;;;;;7.63;4.70;;;42.80;55.60;;;;;;5072281;28;20420;-71
2023/08/26 09:33:47;;;;;;;5.95;4.80;;;44.80;55.10;;;;;;5072151;28;20067;-71
2023/08/26 09:36:51;;;;;;;9.30;5.00;;;42.90;54.10;;;;;;5072219;28;20391;-71
2023/08/26 09:39:56;;;;;;;7.70;4.60;;;45.40;54.40;;;;;;5072188;28;20043;-69
2023/08/26 09:43:04;;;;;;;4.75;4.35;;;41.70;53.50;;;;;;5071547;28;20047;-70
2023/08/26 09:46:08;;;;;;;5.75;4.28;;;42.60;53.30;;;;;;5072045;28;20052;-70
2023/08/26 09:49:13;;;;;;;5.40;4.68;;;42.10;54.60;;;;;;5072544;28;20039;-71
2023/08/26 09:52:17;;;;;;;6.13;4.78;;;42.10;56.00;;;;;;5071683;28;20047;-71
2023/08/26 09:55:22;;;;;;;7.43;4.90;;;41.70;54.20;;;;;;5071553;28;20044;-70
2023/08/26 09:58:26;;;;;;;4.72;4.13;;;42.60;54.10;;;;;;5071777;28;20075;-72
2023/08/26 10:01:30;;;;;;;4.82;3.97;;;44.90;53.60;;;;;;5071351;28;20375;-70
2023/08/26 10:04:37;;;;;;;8.38;4.50;;;45.80;52.70;;;;;;5071536;28;20529;-68
2023/08/26 10:07:46;;;;;;;6.63;4.97;;;42.10;53.30;;;;;;5071695;28;20043;-70
2023/08/26 10:10:54;;;;;;;5.57;4.05;;;40.30;55.80;;;;;;5059262;28;20048;-70
2023/08/26 10:14:00;;;;;;;5.05;3.95;;;44.00;54.40;;;;;;5071236;28;20051;-70
2023/08/26 10:17:07;;;;;;;7.95;5.05;;;46.80;52.70;;;;;;5071463;28;20047;-70
2023/08/26 10:20:12;;;;;;;7.70;4.47;;;44.70;52.80;;;;;;5081928;28;20043;-70
2023/08/26 10:23:16;;;;;;;7.25;4.07;;;46.70;52.20;;;;;;5091616;28;20054;-69
2023/08/26 10:26:20;;;;;;;6.18;4.15;;;48.20;51.50;;;;;;5090927;28;20043;-71
2023/08/26 10:29:26;;;;;;;9.60;4.07;;;48.60;50.60;;;;;;5088562;28;20051;-71
2023/08/26 10:32:30;;;;;;;6.45;3.60;;;48.80;50.20;;;;;;5089463;28;20051;-70
2023/08/26 10:35:38;;;;;;;6.60;3.90;;;49.40;50.10;;;;;;5091626;28;20051;-71
2023/08/26 10:38:57;;;;;;;4.88;4.22;;;44.20;51.20;;;;;;5091509;28;20051;-71
2023/08/26 10:42:16;;;;;;;6.83;4.63;;;42.10;52.20;;;;;;5091245;28;20035;-70
2023/08/26 10:45:23;;;;;;;7.15;4.10;;;44.10;53.00;;;;;;5078710;28;20802;-69
2023/08/26 10:48:27;;;;;;;9.30;4.57;;;46.50;52.30;;;;;;5091170;28;20035;-71
2023/08/26 10:51:35;;;;;;;8.68;4.32;;;48.80;50.40;;;;;;5090893;28;20043;-70
2023/08/26 10:54:42;;;;;;;8.23;4.30;;;49.60;49.70;;;;;;5091361;28;20510;-70
2023/08/26 10:58:06;;;;;;;4.93;4.05;;;45.80;50.50;;;;;;5091168;28;20043;-69
2023/08/26 11:01:11;;;;;;;8.38;4.30;;;45.20;52.10;;;;;;5091660;28;20525;-70
2023/08/26 11:04:17;;;;;;;7.25;3.78;;;47.90;50.80;;;;;;5091444;28;20522;-70
2023/08/26 11:07:21;;;;;;;7.00;3.72;;;49.40;50.30;;;;;;5091361;28;20054;-70
2023/08/26 11:10:27;;;;;;;8.77;4.03;;;50.50;49.10;;;;;;5091138;28;20390;-70
2023/08/26 11:13:32;;;;;;;6.00;3.80;;;48.30;49.20;;;;;;5090978;28;20051;-70
2023/08/26 11:16:36;;;;;;;5.50;3.88;;;48.80;49.00;;;;;;5090615;28;20043;-71
2023/08/26 11:19:40;;;;;;;10.82;3.83;;;50.30;48.50;;;;;;5091512;28;20500;-71
2023/08/26 11:22:45;;;;;;;3.75;3.33;;;51.50;48.40;;;;;;5090532;28;20046;-71
2023/08/26 11:25:50;;;;;;;4.70;3.25;;;50.30;47.50;;;;;;5088977;28;20123;-71
2023/08/26 11:28:54;;;;;;;7.03;3.80;;;51.30;48.20;;;;;;5090522;28;20406;-70
2023/08/26 11:31:58;;;;;;;4.07;3.53;;;51.70;47.50;;;;;;5070268;28;20043;-70
2023/08/26 11:35:05;;;;;;;7.35;3.72;;;49.80;46.50;;;;;;5058489;28;20051;-70
2023/08/26 11:38:13;;;;;;;6.78;3.85;;;45.70;48.20;;;;;;5070665;28;20494;-70
2023/08/26 11:41:20;;;;;;;6.30;3.80;;;47.90;48.80;;;;;;5072932;28;20060;-70
2023/08/26 11:44:25;;;;;;;6.47;3.50;;;50.20;47.80;;;;;;5070825;28;20602;-71
2023/08/26 11:47:30;;;;;;;11.27;4.05;;;51.50;47.40;;;;;;5070410;28;20040;-71
2023/08/26 11:50:35;;;;;;;5.18;3.47;;;50.20;47.80;;;;;;5070349;28;20048;-69
2023/08/26 11:53:39;;;;;;;4.70;3.78;;;50.80;47.10;;;;;;5073517;28;20047;-71
2023/08/26 11:56:45;;;;;;;4.50;3.60;;;50.30;47.30;;;;;;5080422;28;20040;-70
